Time;durP1;ratioP1;P1;durP2;ratioP2;P2;SDS_P1;SDS_P2;PMS_P1;PMS_P2;Temp;Humidity;BMP_temperature;BMP_pressure;BME280_temperature;BME280_humidity;BME280_pressure;Samples;Min_cycle;Max_cycle;Signal;HPM_P1;HPM_P2
2023/08/20 00:01:39;;;;;;;;;4.25;4.25;;;;;;;;5080144;28;45297;-76
2023/08/20 00:04:04;;;;;;;;;6.33;6.33;;;;;;;;5080106;28;45362;-76
2023/08/20 00:06:29;;;;;;;;;5.00;5.00;;;;;;;;5061934;28;45371;-75
2023/08/20 00:08:54;;;;;;;;;5.00;3.25;;;;;;;;5061611;28;46131;-76
2023/08/20 00:11:20;;;;;;;;;5.00;5.00;;;;;;;;5080037;28;45278;-76
2023/08/20 00:13:45;;;;;;;;;5.00;5.00;;;;;;;;5080039;28;45281;-76
2023/08/20 00:16:11;;;;;;;;;5.00;5.00;;;;;;;;5080009;28;45271;-76
2023/08/20 00:18:38;;;;;;;;;5.50;4.50;;;;;;;;5079893;28;45402;-76
2023/08/20 00:21:04;;;;;;;;;5.00;5.00;;;;;;;;5079827;28;45368;-76
2023/08/20 00:23:29;;;;;;;;;4.00;4.00;;;;;;;;5079849;28;45296;-76
2023/08/20 00:25:55;;;;;;;;;5.67;5.33;;;;;;;;5079722;28;45448;-77
2023/08/20 00:28:20;;;;;;;;;4.67;4.67;;;;;;;;5080128;27;45383;-76
2023/08/20 00:30:45;;;;;;;;;4.25;4.00;;;;;;;;5081722;27;47277;-76
2023/08/20 00:33:11;;;;;;;;;5.00;4.00;;;;;;;;5100090;27;45292;-76
2023/08/20 00:35:36;;;;;;;;;5.75;4.50;;;;;;;;5100281;27;45320;-77
2023/08/20 00:38:02;;;;;;;;;5.00;4.00;;;;;;;;5099986;27;45358;-76
2023/08/20 00:40:27;;;;;;;;;3.00;3.00;;;;;;;;5100497;27;46252;-76
2023/08/20 00:42:52;;;;;;;;;4.00;4.00;;;;;;;;5096596;27;45410;-76
2023/08/20 00:45:18;;;;;;;;;2.50;2.50;;;;;;;;5065169;28;45449;-76
2023/08/20 00:47:43;;;;;;;;;4.50;3.50;;;;;;;;5083218;28;45366;-76
2023/08/20 00:50:09;;;;;;;;;4.00;4.00;;;;;;;;5083173;28;46446;-76
2023/08/20 00:52:34;;;;;;;;;4.00;4.00;;;;;;;;5082793;28;45522;-76
2023/08/20 00:55:00;;;;;;;;;3.67;3.33;;;;;;;;5083200;28;45338;-76
2023/08/20 00:57:26;;;;;;;;;4.67;4.00;;;;;;;;5083075;28;45212;-76
2023/08/20 00:59:53;;;;;;;;;3.00;3.00;;;;;;;;5064739;28;47453;-76
2023/08/20 01:02:18;;;;;;;;;2.00;2.00;;;;;;;;5082913;28;45368;-76
2023/08/20 01:04:45;;;;;;;;;3.75;3.75;;;;;;;;5083198;28;45321;-76
2023/08/20 01:07:13;;;;;;;;;7.67;6.67;;;;;;;;5064601;28;46967;-76
2023/08/20 01:09:48;;;;;;;;;4.00;4.00;;;;;;;;5082245;28;46211;-76
2023/08/20 01:12:13;;;;;;;;;3.00;3.00;;;;;;;;5064571;28;45876;-76
2023/08/20 01:14:38;;;;;;;;;3.33;2.33;;;;;;;;5082994;28;45273;-76
2023/08/20 01:17:04;;;;;;;;;3.00;3.00;;;;;;;;5082721;28;45357;-76
2023/08/20 01:19:29;;;;;;;;;4.00;4.00;;;;;;;;5082611;28;45962;-76
2023/08/20 01:22:05;;;;;;;;;9.00;6.00;;;;;;;;5064360;28;45280;-76
2023/08/20 01:24:49;;;;;;;;;6.33;5.33;;;;;;;;5082673;28;45346;-76
2023/08/20 01:27:14;;;;;;;;;6.67;5.33;;;;;;;;5082514;28;45249;-76
2023/08/20 01:29:40;;;;;;;;;7.00;6.50;;;;;;;;5082331;28;46046;-76
2023/08/20 01:32:05;;;;;;;;;6.00;6.00;;;;;;;;5063301;28;45403;-76
2023/08/20 01:34:30;;;;;;;;;4.00;4.00;;;;;;;;5063559;28;45287;-76
2023/08/20 01:36:56;;;;;;;;;5.67;5.67;;;;;;;;5082189;28;45366;-76
2023/08/20 01:39:21;;;;;;;;;3.33;3.33;;;;;;;;5082254;28;46296;-76
2023/08/20 01:41:46;;;;;;;;;5.00;5.00;;;;;;;;5082387;28;45212;-75
2023/08/20 01:44:11;;;;;;;;;3.00;3.00;;;;;;;;5064204;28;45396;-76
2023/08/20 01:46:36;;;;;;;;;7.00;4.00;;;;;;;;5082347;28;45390;-76
2023/08/20 01:49:02;;;;;;;;;4.67;4.67;;;;;;;;5082229;28;45422;-76
2023/08/20 01:51:28;;;;;;;;;4.00;4.00;;;;;;;;5063743;28;45367;-76
2023/08/20 01:53:53;;;;;;;;;4.00;3.33;;;;;;;;5082152;28;45360;-76
2023/08/20 01:56:18;;;;;;;;;5.33;5.33;;;;;;;;5062210;28;47097;-76
2023/08/20 01:58:43;;;;;;;;;4.00;4.00;;;;;;;;5080431;28;45362;-76
2023/08/20 02:01:08;;;;;;;;;4.67;4.00;;;;;;;;5080968;28;45323;-76
2023/08/20 02:03:34;;;;;;;;;5.67;5.67;;;;;;;;5082147;28;45142;-76
2023/08/20 02:06:00;;;;;;;;;3.00;3.00;;;;;;;;5082044;28;45228;-76
2023/08/20 02:08:25;;;;;;;;;4.33;4.00;;;;;;;;5082018;28;45390;-76
2023/08/20 02:10:50;;;;;;;;;6.33;4.00;;;;;;;;5081827;28;45371;-76
2023/08/20 02:13:15;;;;;;;;;4.00;3.33;;;;;;;;5063679;28;45304;-76
2023/08/20 02:15:40;;;;;;;;;4.00;4.00;;;;;;;;5081815;28;45242;-77
2023/08/20 02:18:06;;;;;;;;;2.33;2.33;;;;;;;;5081826;28;45498;-75
2023/08/20 02:20:31;;;;;;;;;4.00;4.00;;;;;;;;5063469;28;45466;-77
2023/08/20 02:22:56;;;;;;;;;6.00;5.00;;;;;;;;5081881;28;45533;-76
2023/08/20 02:25:23;;;;;;;;;4.00;2.00;;;;;;;;5081475;28;45284;-76
2023/08/20 02:27:48;;;;;;;;;4.67;4.67;;;;;;;;5063352;28;47295;-76
2023/08/20 02:30:13;;;;;;;;;3.67;3.00;;;;;;;;5097717;27;45326;-76
2023/08/20 02:32:38;;;;;;;;;4.00;3.33;;;;;;;;5102356;27;45305;-76
2023/08/20 02:35:05;;;;;;;;;6.00;4.00;;;;;;;;5101885;27;45324;-76
2023/08/20 02:37:30;;;;;;;;;4.00;4.00;;;;;;;;5101754;27;45909;-76
2023/08/20 02:39:56;;;;;;;;;6.25;4.00;;;;;;;;5083339;27;45232;-76
2023/08/20 02:42:21;;;;;;;;;3.00;2.33;;;;;;;;5101950;27;45500;-76
2023/08/20 02:44:46;;;;;;;;;2.33;2.33;;;;;;;;5101878;27;45482;-76
2023/08/20 02:47:11;;;;;;;;;2.00;2.00;;;;;;;;5083219;27;47249;-76
2023/08/20 02:49:36;;;;;;;;;4.00;4.00;;;;;;;;5083219;27;45454;-76
2023/08/20 02:52:02;;;;;;;;;2.75;2.75;;;;;;;;5083236;27;45259;-76
2023/08/20 02:54:29;;;;;;;;;3.00;3.00;;;;;;;;5101191;27;45422;-76
2023/08/20 02:56:54;;;;;;;;;3.00;3.00;;;;;;;;5082951;27;47218;-76
2023/08/20 02:59:19;;;;;;;;;8.33;5.00;;;;;;;;5101511;27;45338;-76
2023/08/20 03:01:44;;;;;;;;;5.00;3.67;;;;;;;;5101759;27;45321;-77
2023/08/20 03:04:10;;;;;;;;;4.00;4.00;;;;;;;;5100842;27;45268;-76
2023/08/20 03:06:35;;;;;;;;;3.50;3.50;;;;;;;;5101323;27;46178;-77
2023/08/20 03:09:00;;;;;;;;;4.00;2.67;;;;;;;;5101519;27;45327;-75
2023/08/20 03:11:25;;;;;;;;;4.67;3.33;;;;;;;;5083122;27;45331;-76
2023/08/20 03:13:50;;;;;;;;;7.67;4.00;;;;;;;;5101388;27;45374;-76
2023/08/20 03:16:16;;;;;;;;;5.67;4.67;;;;;;;;5101193;27;45366;-76
2023/08/20 03:18:41;;;;;;;;;3.67;3.00;;;;;;;;5101354;27;45496;-76
2023/08/20 03:21:06;;;;;;;;;2.00;2.00;;;;;;;;5082771;27;45343;-76
2023/08/20 03:23:31;;;;;;;;;3.33;3.33;;;;;;;;5082530;27;46845;-76
2023/08/20 03:25:59;;;;;;;;;4.33;2.00;;;;;;;;5073622;27;45390;-77
2023/08/20 03:28:24;;;;;;;;;2.00;2.00;;;;;;;;5062222;27;45355;-76
2023/08/20 03:30:49;;;;;;;;;2.67;2.67;;;;;;;;5101330;27;45403;-75
2023/08/20 03:33:16;;;;;;;;;3.00;2.00;;;;;;;;5082682;27;46338;-76
2023/08/20 03:35:42;;;;;;;;;3.00;3.00;;;;;;;;5100818;27;45925;-76
2023/08/20 03:38:07;;;;;;;;;4.00;4.00;;;;;;;;5101102;27;45298;-76
2023/08/20 03:40:32;;;;;;;;;5.00;4.00;;;;;;;;5082290;27;45258;-76
2023/08/20 03:42:57;;;;;;;;;5.00;5.00;;;;;;;;5082383;27;47279;-76
2023/08/20 03:45:23;;;;;;;;;5.00;4.00;;;;;;;;5100987;27;45431;-76
2023/08/20 03:47:48;;;;;;;;;4.00;2.00;;;;;;;;5082589;27;45162;-76
2023/08/20 03:50:13;;;;;;;;;4.00;4.00;;;;;;;;5082557;27;45326;-76
2023/08/20 03:52:39;;;;;;;;;3.00;3.00;;;;;;;;5100443;27;45255;-76
2023/08/20 03:55:04;;;;;;;;;5.33;4.67;;;;;;;;5100353;27;46500;-76
2023/08/20 03:57:30;;;;;;;;;3.00;3.00;;;;;;;;5100689;27;45211;-76
2023/08/20 03:59:55;;;;;;;;;2.33;2.33;;;;;;;;5082307;27;45343;-75
2023/08/20 04:02:20;;;;;;;;;4.00;4.00;;;;;;;;5100769;27;45540;-75
2023/08/20 04:04:45;;;;;;;;;3.67;3.67;;;;;;;;5100610;27;45560;-76
2023/08/20 04:07:10;;;;;;;;;7.00;3.00;;;;;;;;5100596;27;45304;-76
2023/08/20 04:09:36;;;;;;;;;7.00;5.33;;;;;;;;5082082;27;45382;-76
2023/08/20 04:12:01;;;;;;;;;4.33;4.33;;;;;;;;5082065;27;46468;-76
2023/08/20 04:14:26;;;;;;;;;7.00;5.00;;;;;;;;5099896;27;46294;-76
2023/08/20 04:16:51;;;;;;;;;3.50;3.50;;;;;;;;5081390;27;45256;-76
2023/08/20 04:19:17;;;;;;;;;5.33;3.67;;;;;;;;5100510;27;45458;-76
2023/08/20 04:21:42;;;;;;;;;2.00;2.00;;;;;;;;5081985;27;47071;-77
2023/08/20 04:24:07;;;;;;;;;4.67;3.67;;;;;;;;5100149;27;45423;-76
2023/08/20 04:26:32;;;;;;;;;4.00;4.00;;;;;;;;5100359;27;45306;-75
2023/08/20 04:28:57;;;;;;;;;6.33;5.00;;;;;;;;5094664;27;45251;-76
2023/08/20 04:31:23;;;;;;;;;1.33;1.33;;;;;;;;5061624;28;46976;-76
2023/08/20 04:33:48;;;;;;;;;2.33;2.33;;;;;;;;5078545;28;45514;-76
2023/08/20 04:36:13;;;;;;;;;5.00;4.00;;;;;;;;5079469;28;45251;-76
2023/08/20 04:38:38;;;;;;;;;2.67;2.67;;;;;;;;5079637;28;45521;-75
2023/08/20 04:41:03;;;;;;;;;4.33;4.00;;;;;;;;5079128;28;45310;-76
2023/08/20 04:43:29;;;;;;;;;4.00;4.00;;;;;;;;5079581;28;45494;-76
2023/08/20 04:45:54;;;;;;;;;4.00;4.00;;;;;;;;5079522;28;45402;-76
2023/08/20 04:48:19;;;;;;;;;6.00;6.00;;;;;;;;5079646;28;45345;-75
2023/08/20 04:50:44;;;;;;;;;3.00;3.00;;;;;;;;5079547;28;45303;-76
2023/08/20 04:53:09;;;;;;;;;4.67;2.67;;;;;;;;5079426;28;46436;-75
2023/08/20 04:55:35;;;;;;;;;5.00;5.00;;;;;;;;5079154;28;45224;-76
2023/08/20 04:58:00;;;;;;;;;4.25;3.75;;;;;;;;5061412;28;45296;-77
2023/08/20 05:00:25;;;;;;;;;3.67;3.67;;;;;;;;5061140;28;46008;-76
2023/08/20 05:02:50;;;;;;;;;3.33;3.00;;;;;;;;5079331;28;45602;-76
2023/08/20 05:05:16;;;;;;;;;4.00;4.00;;;;;;;;5079390;28;45129;-76
2023/08/20 05:07:41;;;;;;;;;4.33;4.33;;;;;;;;5061235;28;45277;-76
2023/08/20 05:10:07;;;;;;;;;2.33;2.33;;;;;;;;5060684;28;46076;-76
2023/08/20 05:12:32;;;;;;;;;3.00;2.67;;;;;;;;5061106;28;47303;-76
2023/08/20 05:14:57;;;;;;;;;3.67;3.67;;;;;;;;5079448;28;45264;-76
2023/08/20 05:17:22;;;;;;;;;4.67;3.33;;;;;;;;5055289;28;45516;-75
2023/08/20 05:19:48;;;;;;;;;5.00;4.67;;;;;;;;5049849;28;46205;-76
2023/08/20 05:22:13;;;;;;;;;4.00;4.00;;;;;;;;5067327;28;45316;-76
2023/08/20 05:24:38;;;;;;;;;3.00;3.00;;;;;;;;5069100;28;45274;-75
2023/08/20 05:27:05;;;;;;;;;3.00;3.00;;;;;;;;5042445;28;45335;-75
2023/08/20 05:29:30;;;;;;;;;4.67;3.33;;;;;;;;5064588;27;46337;-76
2023/08/20 05:31:55;;;;;;;;;4.00;4.00;;;;;;;;5084404;27;47366;-75
2023/08/20 05:34:20;;;;;;;;;5.00;5.00;;;;;;;;5084676;27;46105;-76
2023/08/20 05:36:45;;;;;;;;;4.67;4.00;;;;;;;;5102973;27;45346;-76
2023/08/20 05:39:10;;;;;;;;;3.00;3.00;;;;;;;;5101266;27;45518;-76
2023/08/20 05:41:36;;;;;;;;;5.33;5.33;;;;;;;;5083271;27;47441;-78
2023/08/20 05:44:01;;;;;;;;;4.00;3.33;;;;;;;;5101572;27;45334;-77
2023/08/20 05:46:26;;;;;;;;;4.67;4.67;;;;;;;;5103018;27;45309;-76
2023/08/20 05:48:51;;;;;;;;;3.00;3.00;;;;;;;;5102827;27;45518;-76
2023/08/20 05:51:16;;;;;;;;;4.00;4.00;;;;;;;;5093455;27;46020;-76
2023/08/20 05:53:42;;;;;;;;;3.67;3.67;;;;;;;;5082109;28;45433;-77
2023/08/20 05:56:07;;;;;;;;;5.00;4.00;;;;;;;;5063848;28;45375;-77
2023/08/20 05:58:32;;;;;;;;;4.33;4.33;;;;;;;;5082059;28;45276;-77
2023/08/20 06:00:58;;;;;;;;;4.00;4.00;;;;;;;;5063785;28;46082;-77
2023/08/20 06:03:23;;;;;;;;;3.00;3.00;;;;;;;;5082144;28;45345;-77
2023/08/20 06:05:48;;;;;;;;;4.00;4.00;;;;;;;;5082162;28;45330;-76
2023/08/20 06:08:13;;;;;;;;;4.00;4.00;;;;;;;;5081975;28;45290;-75
2023/08/20 06:10:38;;;;;;;;;3.33;3.33;;;;;;;;5063439;28;48643;-77
2023/08/20 06:13:03;;;;;;;;;5.00;4.00;;;;;;;;5081988;28;45353;-77
2023/08/20 06:15:30;;;;;;;;;6.67;5.00;;;;;;;;5082109;28;45405;-77
2023/08/20 06:17:55;;;;;;;;;4.67;4.67;;;;;;;;5081874;28;45359;-75
2023/08/20 06:20:20;;;;;;;;;4.33;4.33;;;;;;;;5063335;28;48246;-76
2023/08/20 06:22:45;;;;;;;;;4.00;3.00;;;;;;;;5082500;28;45296;-75
2023/08/20 06:25:10;;;;;;;;;8.00;5.33;;;;;;;;5084238;28;45742;-76
2023/08/20 06:27:36;;;;;;;;;7.00;7.00;;;;;;;;5094483;28;45223;-77
2023/08/20 06:30:01;;;;;;;;;3.67;2.00;;;;;;;;5088462;27;46925;-76
2023/08/20 06:32:26;;;;;;;;;5.00;4.00;;;;;;;;5103380;27;45203;-76
2023/08/20 06:34:51;;;;;;;;;5.67;5.00;;;;;;;;5103949;27;45509;-76
2023/08/20 06:37:16;;;;;;;;;4.33;4.33;;;;;;;;5103430;27;45436;-76
2023/08/20 06:39:42;;;;;;;;;6.00;6.00;;;;;;;;5083277;27;48388;-77
2023/08/20 06:42:07;;;;;;;;;5.00;5.00;;;;;;;;5102150;27;45327;-77
2023/08/20 06:44:32;;;;;;;;;7.00;5.33;;;;;;;;5084604;27;45461;-77
2023/08/20 06:46:58;;;;;;;;;6.33;6.33;;;;;;;;5083447;27;46005;-76
2023/08/20 06:49:23;;;;;;;;;4.33;4.33;;;;;;;;5101855;27;46047;-76
2023/08/20 06:51:48;;;;;;;;;5.33;4.33;;;;;;;;5083101;27;45875;-76
2023/08/20 06:54:14;;;;;;;;;6.67;5.00;;;;;;;;5101713;27;45393;-76
2023/08/20 06:56:39;;;;;;;;;6.00;6.00;;;;;;;;5101609;27;45313;-76
2023/08/20 06:59:04;;;;;;;;;7.67;7.67;;;;;;;;5101639;27;46250;-76
2023/08/20 07:01:29;;;;;;;;;7.00;7.00;;;;;;;;5092371;27;46133;-79
2023/08/20 07:03:55;;;;;;;;;8.00;8.00;;;;;;;;5103426;27;45240;-77
2023/08/20 07:06:20;;;;;;;;;10.33;9.33;;;;;;;;5084907;27;47208;-78
2023/08/20 07:08:45;;;;;;;;;10.00;9.67;;;;;;;;5086619;27;46674;-78
2023/08/20 07:11:10;;;;;;;;;14.33;11.67;;;;;;;;5062706;28;45328;-79
2023/08/20 07:13:36;;;;;;;;;9.00;9.00;;;;;;;;5083155;28;45421;-78
2023/08/20 07:16:02;;;;;;;;;10.67;8.67;;;;;;;;5062767;28;45971;-78
2023/08/20 07:18:27;;;;;;;;;8.33;8.33;;;;;;;;5083209;28;46513;-78
2023/08/20 07:20:52;;;;;;;;;9.00;7.00;;;;;;;;5065663;28;45367;-78
2023/08/20 07:23:18;;;;;;;;;9.00;9.00;;;;;;;;5082248;28;45640;-77
2023/08/20 07:25:44;;;;;;;;;9.00;8.67;;;;;;;;5080561;28;45357;-79
2023/08/20 07:28:10;;;;;;;;;7.33;6.00;;;;;;;;5080821;28;45355;-77
2023/08/20 07:30:35;;;;;;;;;6.67;6.33;;;;;;;;5081656;27;45366;-77
2023/08/20 07:33:01;;;;;;;;;4.00;4.00;;;;;;;;5082775;27;45388;-77
2023/08/20 07:35:26;;;;;;;;;4.00;4.00;;;;;;;;5100940;27;45337;-76
2023/08/20 07:37:52;;;;;;;;;7.00;6.00;;;;;;;;5100927;27;45299;-76
2023/08/20 07:40:17;;;;;;;;;5.33;5.33;;;;;;;;5096814;27;45368;-78
2023/08/20 07:42:43;;;;;;;;;5.33;5.33;;;;;;;;5069468;28;46015;-77
2023/08/20 07:45:08;;;;;;;;;8.00;6.00;;;;;;;;5070142;28;45436;-77
2023/08/20 07:47:34;;;;;;;;;6.00;6.00;;;;;;;;5064042;28;45410;-76
2023/08/20 07:49:59;;;;;;;;;5.50;5.25;;;;;;;;5041556;28;45345;-77
2023/08/20 07:52:24;;;;;;;;;5.00;5.00;;;;;;;;5041975;28;45258;-77
2023/08/20 07:54:49;;;;;;;;;8.00;7.25;;;;;;;;5042164;28;45967;-76
2023/08/20 07:57:15;;;;;;;;;5.25;5.25;;;;;;;;5042063;28;47851;-77
2023/08/20 07:59:40;;;;;;;;;8.00;8.00;;;;;;;;5060239;28;45402;-77
2023/08/20 08:02:05;;;;;;;;;5.75;5.75;;;;;;;;5060459;28;45248;-78
2023/08/20 08:04:30;;;;;;;;;5.00;5.00;;;;;;;;5060618;28;45512;-76
2023/08/20 08:06:56;;;;;;;;;7.25;6.50;;;;;;;;5042121;28;48102;-75
2023/08/20 08:09:31;;;;;;;;;7.67;6.00;;;;;;;;5068731;28;45385;-79
2023/08/20 08:11:56;;;;;;;;;8.00;8.00;;;;;;;;5062506;28;45261;-78
2023/08/20 08:14:22;;;;;;;;;6.25;5.00;;;;;;;;5060556;28;45315;-77
2023/08/20 08:16:47;;;;;;;;;5.00;5.00;;;;;;;;5060060;28;45415;-76
2023/08/20 08:19:12;;;;;;;;;7.00;6.00;;;;;;;;5041529;28;46027;-76
2023/08/20 08:21:38;;;;;;;;;4.75;4.00;;;;;;;;5059698;28;45298;-77
2023/08/20 08:24:03;;;;;;;;;5.00;5.00;;;;;;;;5059520;28;45301;-77
2023/08/20 08:26:29;;;;;;;;;5.50;5.50;;;;;;;;5059535;28;45734;-77
2023/08/20 08:28:54;;;;;;;;;5.00;5.00;;;;;;;;5070161;27;45262;-77
2023/08/20 08:31:20;;;;;;;;;6.00;4.33;;;;;;;;5100549;27;45286;-78
2023/08/20 08:33:45;;;;;;;;;4.25;4.25;;;;;;;;5073060;27;45525;-77
2023/08/20 08:36:11;;;;;;;;;4.50;4.50;;;;;;;;5071372;28;45535;-78
2023/08/20 08:38:36;;;;;;;;;8.00;7.25;;;;;;;;5052234;28;45490;-78
2023/08/20 08:41:02;;;;;;;;;7.25;7.25;;;;;;;;5049332;28;45471;-79
2023/08/20 08:43:27;;;;;;;;;4.00;4.00;;;;;;;;5040287;28;46023;-78
2023/08/20 08:45:55;;;;;;;;;6.25;6.00;;;;;;;;5045662;28;47240;-78
2023/08/20 08:48:20;;;;;;;;;6.50;6.50;;;;;;;;5059015;28;45265;-79
2023/08/20 08:50:46;;;;;;;;;5.25;5.25;;;;;;;;5078598;28;45559;-79
2023/08/20 08:53:12;;;;;;;;;4.00;4.00;;;;;;;;5080645;28;45505;-78
2023/08/20 08:55:38;;;;;;;;;7.00;7.00;;;;;;;;5080648;28;46547;-79
2023/08/20 08:58:03;;;;;;;;;5.75;4.50;;;;;;;;5080536;28;45382;-79
2023/08/20 09:00:31;;;;;;;;;6.25;5.00;;;;;;;;5080355;28;45315;-79
2023/08/20 09:02:56;;;;;;;;;4.75;4.75;;;;;;;;5083033;28;45212;-78
2023/08/20 09:05:21;;;;;;;;;5.50;5.50;;;;;;;;5057909;28;47308;-80
2023/08/20 09:07:46;;;;;;;;;7.75;7.75;;;;;;;;5055193;28;45730;-78
2023/08/20 09:10:11;;;;;;;;;6.75;6.75;;;;;;;;5079178;28;45331;-78
2023/08/20 09:12:37;;;;;;;;;5.00;5.00;;;;;;;;5069197;28;45524;-78
2023/08/20 09:15:02;;;;;;;;;9.25;8.50;;;;;;;;5061939;28;45394;-77
2023/08/20 09:17:28;;;;;;;;;6.00;6.00;;;;;;;;5077064;28;45245;-78
2023/08/20 09:19:54;;;;;;;;;5.50;5.50;;;;;;;;5071755;28;45280;-78
2023/08/20 09:22:20;;;;;;;;;7.50;6.25;;;;;;;;5070786;28;45545;-78
2023/08/20 09:24:46;;;;;;;;;6.25;6.25;;;;;;;;5073064;28;46337;-78
2023/08/20 09:27:12;;;;;;;;;5.50;5.50;;;;;;;;5070884;28;45481;-77
2023/08/20 09:29:47;;;;;;;;;4.25;4.25;;;;;;;;5072456;27;45551;-78
2023/08/20 09:32:17;;;;;;;;;4.25;4.25;;;;;;;;5050183;28;46446;-78
2023/08/20 09:34:42;;;;;;;;;5.00;5.00;;;;;;;;5053378;28;47540;-78
2023/08/20 09:37:14;;;;;;;;;5.50;4.00;;;;;;;;5076639;28;45423;-78
2023/08/20 09:39:40;;;;;;;;;5.50;5.50;;;;;;;;5052483;28;45439;-78
2023/08/20 09:42:06;;;;;;;;;5.25;5.25;;;;;;;;5071462;28;45493;-78
2023/08/20 09:44:41;;;;;;;;;6.00;5.00;;;;;;;;5052182;28;47219;-79
2023/08/20 09:47:10;;;;;;;;;6.25;6.25;;;;;;;;5069900;28;45387;-77
2023/08/20 09:49:37;;;;;;;;;6.00;5.00;;;;;;;;5070546;28;45253;-78
2023/08/20 09:52:09;;;;;;;;;4.50;4.50;;;;;;;;5052716;28;46392;-80
2023/08/20 09:54:46;;;;;;;;;4.50;4.50;;;;;;;;5069141;28;45457;-78
2023/08/20 09:57:26;;;;;;;;;6.75;6.00;;;;;;;;5070082;28;45363;-78
2023/08/20 09:59:51;;;;;;;;;7.00;6.00;;;;;;;;5069819;28;45517;-77
2023/08/20 10:02:17;;;;;;;;;4.25;4.00;;;;;;;;5070658;28;45859;-78
2023/08/20 10:04:43;;;;;;;;;5.00;4.50;;;;;;;;5076329;28;45590;-78
2023/08/20 10:07:09;;;;;;;;;4.25;4.25;;;;;;;;5079671;28;45352;-77
2023/08/20 10:09:34;;;;;;;;;5.75;4.50;;;;;;;;5063904;28;45371;-77
2023/08/20 10:12:01;;;;;;;;;3.00;3.00;;;;;;;;5086749;27;45410;-78
2023/08/20 10:14:26;;;;;;;;;4.00;4.00;;;;;;;;5063763;28;47186;-80
2023/08/20 10:16:52;;;;;;;;;4.50;2.75;;;;;;;;5047575;28;45697;-80
2023/08/20 10:19:19;;;;;;;;;6.25;4.75;;;;;;;;5061956;28;45414;-81
2023/08/20 10:21:45;;;;;;;;;5.75;5.75;;;;;;;;5043101;28;46085;-79
2023/08/20 10:24:15;;;;;;;;;4.00;4.00;;;;;;;;5042958;28;47346;-81
2023/08/20 10:26:41;;;;;;;;;5.25;4.75;;;;;;;;5043269;28;45928;-81
2023/08/20 10:29:25;;;;;;;;;4.25;4.25;;;;;;;;5075304;27;45773;-80
2023/08/20 10:31:53;;;;;;;;;4.50;4.50;;;;;;;;5102442;27;45492;-81
2023/08/20 10:34:32;;;;;;;;;5.00;4.00;;;;;;;;5104660;27;46482;-82
2023/08/20 10:36:57;;;;;;;;;3.50;3.50;;;;;;;;5102041;27;45521;-79
2023/08/20 10:39:23;;;;;;;;;4.75;4.75;;;;;;;;5102059;27;45240;-79
2023/08/20 10:41:48;;;;;;;;;4.00;4.00;;;;;;;;5064658;28;46304;-81
2023/08/20 10:44:14;;;;;;;;;4.50;4.50;;;;;;;;5081311;28;46158;-80
2023/08/20 10:46:49;;;;;;;;;2.00;2.00;;;;;;;;5076438;28;45274;-81
2023/08/20 10:49:16;;;;;;;;;5.25;4.50;;;;;;;;5070114;28;45334;-81
2023/08/20 10:51:43;;;;;;;;;2.75;1.75;;;;;;;;5081103;28;45295;-78
2023/08/20 10:54:09;;;;;;;;;4.00;3.25;;;;;;;;5050973;28;47382;-80
2023/08/20 10:56:44;;;;;;;;;4.50;4.50;;;;;;;;5074182;28;45413;-79
2023/08/20 10:59:14;;;;;;;;;5.25;5.25;;;;;;;;5068402;28;45308;-77
2023/08/20 11:01:42;;;;;;;;;5.50;5.00;;;;;;;;5063475;27;46161;-78
2023/08/20 11:04:08;;;;;;;;;3.25;3.25;;;;;;;;5061060;28;46864;-76
2023/08/20 11:06:34;;;;;;;;;3.50;3.50;;;;;;;;5061429;27;45260;-77
2023/08/20 11:08:59;;;;;;;;;4.00;4.00;;;;;;;;5080058;28;45435;-77
2023/08/20 11:11:25;;;;;;;;;4.00;3.25;;;;;;;;5068762;27;45581;-76
2023/08/20 11:13:50;;;;;;;;;4.75;4.75;;;;;;;;5072622;28;45534;-76
2023/08/20 11:16:15;;;;;;;;;3.25;3.25;;;;;;;;5073667;28;45445;-75
2023/08/20 11:18:41;;;;;;;;;3.25;3.25;;;;;;;;5074278;27;45436;-76
2023/08/20 11:21:07;;;;;;;;;4.50;3.50;;;;;;;;5054728;28;47581;-75
2023/08/20 11:23:32;;;;;;;;;4.00;3.00;;;;;;;;5068592;28;46359;-75
2023/08/20 11:25:57;;;;;;;;;5.00;5.00;;;;;;;;5065896;28;45456;-75
2023/08/20 11:28:24;;;;;;;;;5.50;5.50;;;;;;;;5060808;27;45412;-75
2023/08/20 11:30:49;;;;;;;;;4.00;4.00;;;;;;;;5064724;27;45516;-75
2023/08/20 11:33:16;;;;;;;;;5.50;5.50;;;;;;;;5072394;28;45630;-75
2023/08/20 11:35:41;;;;;;;;;4.25;4.00;;;;;;;;5076079;28;45455;-75
2023/08/20 11:38:06;;;;;;;;;4.00;4.00;;;;;;;;5073498;28;45556;-75
2023/08/20 11:40:31;;;;;;;;;3.25;3.25;;;;;;;;5069736;28;45462;-75
2023/08/20 11:42:56;;;;;;;;;4.75;4.00;;;;;;;;5055246;28;47797;-75
2023/08/20 11:45:22;;;;;;;;;6.00;5.25;;;;;;;;5074388;28;45362;-75
2023/08/20 11:47:47;;;;;;;;;3.75;3.25;;;;;;;;5046665;28;45458;-76
2023/08/20 11:50:12;;;;;;;;;4.25;4.25;;;;;;;;5066033;28;45408;-74
2023/08/20 11:52:39;;;;;;;;;4.00;4.00;;;;;;;;5049965;28;47279;-75
2023/08/20 11:55:06;;;;;;;;;4.00;4.00;;;;;;;;5067525;28;45438;-74
2023/08/20 11:57:31;;;;;;;;;3.25;3.25;;;;;;;;5068767;27;45348;-75
2023/08/20 12:00:01;;;;;;;;;4.00;3.25;;;;;;;;5068111;28;45661;-75
2023/08/20 12:02:27;;;;;;;;;3.25;3.25;;;;;;;;5070488;27;45512;-75
2023/08/20 12:04:55;;;;;;;;;3.75;3.75;;;;;;;;5067472;28;45314;-75
2023/08/20 12:07:20;;;;;;;;;5.00;3.75;;;;;;;;5056443;28;45392;-75
2023/08/20 12:09:45;;;;;;;;;4.00;4.00;;;;;;;;5072415;28;45557;-75
2023/08/20 12:12:10;;;;;;;;;4.00;3.25;;;;;;;;5058090;28;48540;-76
2023/08/20 12:14:36;;;;;;;;;3.00;3.00;;;;;;;;5076230;28;45418;-74
2023/08/20 12:17:03;;;;;;;;;3.00;3.00;;;;;;;;5079336;28;45348;-75
2023/08/20 12:19:28;;;;;;;;;4.00;4.00;;;;;;;;5060904;28;46203;-75
2023/08/20 12:21:53;;;;;;;;;3.25;3.25;;;;;;;;5078926;28;46116;-74
2023/08/20 12:24:19;;;;;;;;;4.00;4.00;;;;;;;;5059742;28;45704;-75
2023/08/20 12:26:44;;;;;;;;;3.00;3.00;;;;;;;;5079219;28;45366;-76
2023/08/20 12:29:09;;;;;;;;;3.25;2.75;;;;;;;;5086650;27;45541;-75
2023/08/20 12:31:35;;;;;;;;;2.50;2.50;;;;;;;;5066236;28;47125;-75
2023/08/20 12:34:01;;;;;;;;;5.75;4.00;;;;;;;;5060488;28;45312;-75
2023/08/20 12:36:26;;;;;;;;;2.75;2.75;;;;;;;;5079810;28;45441;-75
2023/08/20 12:38:51;;;;;;;;;3.75;3.75;;;;;;;;5080923;28;45683;-75
2023/08/20 12:41:16;;;;;;;;;3.50;3.50;;;;;;;;5081593;28;45454;-75
2023/08/20 12:43:41;;;;;;;;;3.00;3.00;;;;;;;;5083038;28;45639;-75
2023/08/20 12:46:07;;;;;;;;;3.00;3.00;;;;;;;;5065128;28;45831;-75
2023/08/20 12:48:32;;;;;;;;;3.50;3.50;;;;;;;;5067881;28;45400;-80
2023/08/20 12:50:58;;;;;;;;;4.00;4.00;;;;;;;;5047258;28;47844;-78
2023/08/20 12:53:23;;;;;;;;;3.25;3.25;;;;;;;;5066806;28;45803;-78
2023/08/20 12:55:48;;;;;;;;;5.75;4.00;;;;;;;;5069674;27;45336;-78
2023/08/20 12:58:13;;;;;;;;;4.00;3.00;;;;;;;;5069893;28;45681;-78
2023/08/20 13:00:38;;;;;;;;;4.75;4.75;;;;;;;;5070821;28;45397;-78
2023/08/20 13:03:04;;;;;;;;;4.00;4.00;;;;;;;;5070364;28;45478;-77
2023/08/20 13:05:29;;;;;;;;;5.75;5.00;;;;;;;;5072567;28;45393;-77
2023/08/20 13:07:55;;;;;;;;;4.50;4.50;;;;;;;;5066247;28;45650;-78
2023/08/20 13:10:20;;;;;;;;;6.00;5.00;;;;;;;;5070389;28;46083;-78
2023/08/20 13:12:50;;;;;;;;;3.75;3.75;;;;;;;;5072441;28;45375;-78
2023/08/20 13:15:16;;;;;;;;;4.00;4.00;;;;;;;;5070875;28;45413;-78
2023/08/20 13:17:42;;;;;;;;;3.50;3.50;;;;;;;;5070498;28;45364;-77
2023/08/20 13:20:08;;;;;;;;;4.00;4.00;;;;;;;;5054046;28;47904;-78
2023/08/20 13:22:33;;;;;;;;;4.75;4.75;;;;;;;;5071118;28;45362;-78
2023/08/20 13:24:58;;;;;;;;;4.00;4.00;;;;;;;;5071142;28;45619;-78
2023/08/20 13:27:24;;;;;;;;;4.50;4.50;;;;;;;;5045707;28;46131;-79
2023/08/20 13:29:49;;;;;;;;;5.00;5.00;;;;;;;;5070524;27;45469;-78
2023/08/20 13:32:15;;;;;;;;;4.75;4.75;;;;;;;;5052945;28;45436;-77
2023/08/20 13:34:40;;;;;;;;;6.50;6.25;;;;;;;;5072551;28;45466;-76
2023/08/20 13:37:05;;;;;;;;;3.75;3.75;;;;;;;;5070121;28;45524;-77
2023/08/20 13:39:30;;;;;;;;;4.00;4.00;;;;;;;;5070400;28;45430;-77
2023/08/20 13:41:55;;;;;;;;;4.00;4.00;;;;;;;;5081078;28;45386;-78
2023/08/20 13:44:20;;;;;;;;;6.00;5.00;;;;;;;;5080151;28;45430;-78
2023/08/20 13:46:46;;;;;;;;;4.50;4.50;;;;;;;;5081492;28;45485;-78
2023/08/20 13:49:11;;;;;;;;;6.25;6.25;;;;;;;;5070725;28;45803;-80
2023/08/20 13:51:36;;;;;;;;;5.25;5.25;;;;;;;;5056568;28;45406;-78
2023/08/20 13:54:01;;;;;;;;;4.25;4.00;;;;;;;;5080544;27;45543;-80
2023/08/20 13:56:27;;;;;;;;;4.25;4.25;;;;;;;;5063644;28;45399;-79
2023/08/20 13:58:52;;;;;;;;;4.00;4.00;;;;;;;;5074905;27;45635;-78
2023/08/20 14:01:17;;;;;;;;;4.50;4.50;;;;;;;;5061108;28;45286;-79
2023/08/20 14:03:43;;;;;;;;;4.25;4.25;;;;;;;;5073376;27;45278;-78
2023/08/20 14:06:08;;;;;;;;;4.75;4.75;;;;;;;;5081492;28;45295;-79
2023/08/20 14:08:33;;;;;;;;;4.00;4.00;;;;;;;;5081416;27;45375;-78
2023/08/20 14:10:58;;;;;;;;;7.75;5.50;;;;;;;;5081503;28;45398;-78
2023/08/20 14:13:24;;;;;;;;;6.50;6.50;;;;;;;;5062828;27;45549;-77
2023/08/20 14:15:49;;;;;;;;;5.25;5.25;;;;;;;;5063169;28;46058;-77
2023/08/20 14:18:14;;;;;;;;;5.00;5.00;;;;;;;;5080697;27;45400;-78
2023/08/20 14:20:40;;;;;;;;;5.00;4.75;;;;;;;;5062791;28;45623;-76
2023/08/20 14:23:05;;;;;;;;;5.25;5.25;;;;;;;;5081359;27;45239;-77
2023/08/20 14:25:30;;;;;;;;;5.00;3.75;;;;;;;;5080945;28;45221;-77
2023/08/20 14:27:55;;;;;;;;;3.75;3.50;;;;;;;;5062935;28;48048;-76
2023/08/20 14:30:20;;;;;;;;;5.75;5.75;;;;;;;;5074824;28;45212;-75
2023/08/20 14:32:45;;;;;;;;;6.50;6.50;;;;;;;;5081257;27;45188;-76
2023/08/20 14:35:11;;;;;;;;;5.00;5.00;;;;;;;;5080776;28;45328;-76